Western Neb. Rgnl/William B. Heilig Airport
KBFF : now visible

Airfield :











YOU CAN JOIN US ON...

 
LOGIN :

Register | Disclaimer

   EN    FR    IT 

 









Legend :    VFR   Marginal VFR   IFR   Intensive IFR   Very Intensive IFR
Visi :
Ceiling :
>= 8 km
>= 3000ft
5 to 8 km
1000 to 3000 ft
1500m to 5 km
500 to 1000 ft
800 to 1500m
200 to 500 ft
< 800m
< 200 ft
Symbols :   Thunderstorms  Fog  Heavy snow  Heavy precipitations  Wind > 20 kt






- Airport Elevation : 3967 ft
- IATA code : BFF


KBFF - Western Neb. Rgnl/William B. Heilig

EXPIRED METARs :
  • 261853Z AUTO 16006KT 10SM CLR 06/M03 A3002 RMK AO2 SLP171 T00611033 $
  • 261753Z AUTO VRB03KT 10SM CLR 06/M03 A3004 RMK AO2 SLP175 T00561033 10056 21056 50005 $

TAF KBFF
Valid from the 26 at 18:00 until the 27 at 18:00 UTC


261720Z 2618/2718 32009KT P6SM SKC
FM270100 32005KT P6SM SKC
FM271500 27008KT P6SM SKC
KZDV FIR / North America



MET'MAP, your aeronautical weather chart ! - Copyright ORBIFLY December 2007 - Disclaimer

ORBIFLY MET'MAP TEAM :

Programming & Development : Alexandra Zaïnal
Concept & original design : Baudouin d'Aumeries
Assistance for programming : Marc-Olivier Méhu
Technical & hardware support : Manuel Goepfert

Contact : metmap@orbifly.com




SOURCES & CREDITS :

   NOAA       Earth
Advisory